createdAt,value
2019-04-21T00:01:34.671Z,11.73
2019-04-21T00:04:11.331Z,11.32
2019-04-21T00:06:55.277Z,11.09
2019-04-21T00:09:31.219Z,10.75
2019-04-21T00:11:55.633Z,10.62
2019-04-21T00:14:21.992Z,10.67
2019-04-21T00:16:55.231Z,10.87
2019-04-21T00:19:28.463Z,10.61
2019-04-21T00:22:08.587Z,10.34
2019-04-21T00:24:46.934Z,10.22
2019-04-21T00:27:21.416Z,10.43
2019-04-21T00:29:51.816Z,10.34
2019-04-21T00:32:21.961Z,10.22
2019-04-21T00:34:50.403Z,10.08
2019-04-21T00:37:24.127Z,10.21
2019-04-21T00:40:09.229Z,9.99
2019-04-21T00:42:40.360Z,9.98
2019-04-21T00:45:09.132Z,10.25
2019-04-21T00:47:40.272Z,10.17
2019-04-21T00:50:17.919Z,10.33
2019-04-21T00:53:00.447Z,10.14
2019-04-21T00:55:38.716Z,10.07
2019-04-21T00:58:13.097Z,10.14
2019-04-21T01:00:38.517Z,10.12
2019-04-21T01:03:14.221Z,10.10
2019-04-21T01:05:51.819Z,10.22
2019-04-21T01:08:19.848Z,9.96
2019-04-21T01:10:43.957Z,10.01
2019-04-21T01:13:23.512Z,9.83
2019-04-21T01:15:59.763Z,9.98
2019-04-21T01:18:31.512Z,9.95
2019-04-21T01:20:40.980Z,9.87
2019-04-21T01:23:12.695Z,9.77
2019-04-21T01:25:55.887Z,9.90
2019-04-21T01:28:36.553Z,10.03
2019-04-21T01:31:11.114Z,9.98
2019-04-21T01:33:48.639Z,9.86
2019-04-21T01:36:14.014Z,10.20
2019-04-21T01:38:59.090Z,10.23
2019-04-21T01:41:28.179Z,10.29
2019-04-21T01:43:53.487Z,10.34
2019-04-21T01:46:20.690Z,9.99
2019-04-21T01:48:52.554Z,9.87
2019-04-21T01:51:26.026Z,10.07
2019-04-21T01:54:09.376Z,9.74
2019-04-21T01:56:44.535Z,9.72
2019-04-21T01:59:09.000Z,9.57
2019-04-21T02:01:52.453Z,9.51
2019-04-21T02:04:36.383Z,9.59
2019-04-21T02:07:04.301Z,9.44
2019-04-21T02:09:35.650Z,9.63
2019-04-21T02:12:08.736Z,9.26
2019-04-21T02:14:45.836Z,9.25
2019-04-21T02:17:14.504Z,9.38
2019-04-21T02:19:41.250Z,9.63
2019-04-21T02:22:21.557Z,9.60
2019-04-21T02:24:56.763Z,9.51
2019-04-21T02:27:26.523Z,9.48
2019-04-21T02:30:00.130Z,9.10
2019-04-21T02:32:43.753Z,9.08
2019-04-21T02:35:24.644Z,9.11
2019-04-21T02:40:21.570Z,9.24
2019-04-21T02:43:03.272Z,9.30
2019-04-21T02:45:22.909Z,9.14
2019-04-21T02:50:33.977Z,9.21
2019-04-21T02:53:05.234Z,9.20
2019-04-21T02:58:29.107Z,9.35
2019-04-21T03:01:18.745Z,9.46
2019-04-21T03:03:54.884Z,9.19
2019-04-21T03:06:53.806Z,8.96
2019-04-21T03:09:18.515Z,9.06
2019-04-21T03:11:53.429Z,9.07
2019-04-21T03:14:30.735Z,9.01
2019-04-21T03:16:47.127Z,9.09
2019-04-21T03:19:36.460Z,9.14
2019-04-21T03:22:07.177Z,9.32
2019-04-21T03:24:46.307Z,8.94
2019-04-21T03:27:21.009Z,9.26
2019-04-21T03:29:37.187Z,8.62
2019-04-21T03:35:15.210Z,8.22
2019-04-21T03:37:23.831Z,8.58
2019-04-21T03:39:56.833Z,8.72
2019-04-21T03:42:27.045Z,8.01
2019-04-21T03:47:30.805Z,8.18
2019-04-21T03:50:14.131Z,7.99
2019-04-21T04:06:11.463Z,8.28
2019-04-21T04:11:29.923Z,8.20
2019-04-21T04:14:04.061Z,8.40
2019-04-21T04:16:31.215Z,8.22
2019-04-21T04:24:07.467Z,8.28
2019-04-21T04:26:39.466Z,8.31
2019-04-21T04:29:15.520Z,8.42
2019-04-21T04:31:49.861Z,8.19
2019-04-21T04:39:36.734Z,8.83
2019-04-21T04:42:17.494Z,8.63
2019-04-21T04:47:20.356Z,8.67
2019-04-21T04:49:51.577Z,8.72
2019-04-21T04:57:39.580Z,8.72
2019-04-21T05:00:00.519Z,8.47
2019-04-21T05:02:35.600Z,8.38
2019-04-21T05:10:50.927Z,9.04
2019-04-21T05:12:38.833Z,8.69
2019-04-21T05:15:16.239Z,9.01
2019-04-21T05:20:17.086Z,9.00
2019-04-21T05:22:42.699Z,9.13
2019-04-21T05:25:08.319Z,8.59
2019-04-21T05:27:44.895Z,8.67
2019-04-21T05:30:28.422Z,9.05
2019-04-21T05:33:00.293Z,9.95
2019-04-21T05:35:46.276Z,9.97
2019-04-21T05:38:17.405Z,9.95
2019-04-21T05:40:50.066Z,9.74
2019-04-21T05:43:27.982Z,9.96
2019-04-21T05:46:13.740Z,9.87
2019-04-21T05:48:36.405Z,10.35
2019-04-21T05:51:06.061Z,9.94
2019-04-21T05:53:39.334Z,10.29
2019-04-21T05:56:16.241Z,10.69
2019-04-21T05:58:43.541Z,10.82
2019-04-21T06:01:31.537Z,10.53
2019-04-21T06:03:57.564Z,11.11
2019-04-21T06:06:34.098Z,11.38
2019-04-21T06:08:59.553Z,10.98
2019-04-21T06:11:33.820Z,10.85
2019-04-21T06:14:08.116Z,11.14
2019-04-21T06:16:45.145Z,11.12
2019-04-21T06:19:15.066Z,10.99
2019-04-21T06:21:40.566Z,11.31
2019-04-21T06:24:15.970Z,11.10
2019-04-21T06:26:59.214Z,11.09
2019-04-21T06:29:24.004Z,11.72
2019-04-21T06:34:40.760Z,11.92
2019-04-21T06:37:31.681Z,12.54
2019-04-21T06:39:44.819Z,12.60
2019-04-21T06:42:09.776Z,12.94
2019-04-21T06:44:48.341Z,13.25
2019-04-21T06:47:24.474Z,13.40
2019-04-21T06:49:45.642Z,13.14
2019-04-21T06:52:44.680Z,13.30
2019-04-21T06:55:00.098Z,13.58
2019-04-21T06:57:29.629Z,13.31
2019-04-21T06:59:58.713Z,13.57
2019-04-21T07:05:20.438Z,13.81
2019-04-21T07:07:35.543Z,14.00
2019-04-21T07:10:10.369Z,14.50
2019-04-21T07:12:39.411Z,14.48
2019-04-21T07:15:13.315Z,14.55
2019-04-21T07:17:46.975Z,14.83
2019-04-21T07:20:17.214Z,14.74
2019-04-21T07:22:57.024Z,14.97
2019-04-21T07:25:29.806Z,15.16
2019-04-21T07:27:59.247Z,14.98
2019-04-21T07:30:35.140Z,15.28
2019-04-21T07:33:19.160Z,15.28
2019-04-21T07:35:37.337Z,15.85
2019-04-21T07:38:15.040Z,15.64
2019-04-21T07:40:38.965Z,15.48
2019-04-21T07:43:15.219Z,15.47
2019-04-21T07:45:40.990Z,16.03
2019-04-21T07:48:29.555Z,16.03
2019-04-21T07:51:04.042Z,16.44
2019-04-21T07:53:52.553Z,16.44
2019-04-21T07:55:59.649Z,16.64
2019-04-21T07:58:54.097Z,16.64
2019-04-21T08:03:58.170Z,16.95
2019-04-21T08:06:27.068Z,17.25
2019-04-21T08:08:55.465Z,17.05
2019-04-21T08:11:25.428Z,17.23
2019-04-21T08:14:04.588Z,17.23
2019-04-21T08:16:42.066Z,18.12
2019-04-21T08:19:09.643Z,18.12
2019-04-21T08:21:43.010Z,17.78
2019-04-21T08:24:14.443Z,18.14
2019-04-21T08:26:51.607Z,18.16
2019-04-21T08:29:25.804Z,18.49
2019-04-21T08:32:00.753Z,19.09
2019-04-21T08:34:28.480Z,18.83
2019-04-21T08:36:57.263Z,18.80
2019-04-21T08:39:32.930Z,18.81
2019-04-21T08:42:06.359Z,18.45
2019-04-21T08:44:44.958Z,19.28
2019-04-21T08:47:07.476Z,19.67
2019-04-21T08:49:41.452Z,18.57
2019-04-21T08:52:26.021Z,19.45
2019-04-21T08:54:52.648Z,19.26
2019-04-21T08:57:32.197Z,18.92
2019-04-21T09:00:20.040Z,19.26
2019-04-21T09:03:02.453Z,19.62
2019-04-21T09:05:31.133Z,19.79
2019-04-21T09:08:03.797Z,20.23
2019-04-21T09:10:37.823Z,19.99
2019-04-21T09:13:04.288Z,18.71
2019-04-21T09:15:41.693Z,18.97
2019-04-21T09:18:08.481Z,18.92
2019-04-21T09:20:52.202Z,19.89
2019-04-21T09:23:19.263Z,20.08
2019-04-21T09:25:57.393Z,19.95
2019-04-21T09:28:22.665Z,19.69
2019-04-21T09:30:48.915Z,19.62
2019-04-21T09:33:14.071Z,20.43
2019-04-21T09:35:49.153Z,20.35
2019-04-21T09:38:27.617Z,20.52
2019-04-21T09:40:54.052Z,20.76
2019-04-21T09:43:30.808Z,20.27
2019-04-21T09:45:56.718Z,20.61
2019-04-21T09:48:29.793Z,20.82
2019-04-21T09:51:00.409Z,21.57
2019-04-21T09:53:37.641Z,21.40
2019-04-21T09:56:07.956Z,20.47
2019-04-21T09:58:40.752Z,20.88
2019-04-21T10:01:19.718Z,21.29
2019-04-21T10:03:48.242Z,21.51
2019-04-21T10:06:17.324Z,21.46
2019-04-21T10:08:50.443Z,21.34
2019-04-21T10:11:21.001Z,21.33
2019-04-21T10:13:53.020Z,20.59
2019-04-21T10:16:26.099Z,21.24
2019-04-21T10:18:56.923Z,21.52
2019-04-21T10:21:29.290Z,22.07
2019-04-21T10:24:00.343Z,21.94
2019-04-21T10:26:31.172Z,22.03
2019-04-21T10:29:08.545Z,22.17
2019-04-21T10:31:34.847Z,22.46
2019-04-21T10:34:05.623Z,22.80
2019-04-21T10:36:37.229Z,23.13
2019-04-21T10:39:09.300Z,22.54
2019-04-21T10:41:41.424Z,22.49
2019-04-21T10:44:13.535Z,22.76
2019-04-21T10:46:47.350Z,22.81
2019-04-21T10:49:18.899Z,22.53
2019-04-21T10:51:50.796Z,22.72
2019-04-21T10:54:21.905Z,23.06
2019-04-21T10:56:52.714Z,23.23
2019-04-21T10:59:25.000Z,22.68
2019-04-21T11:01:56.855Z,23.11
2019-04-21T11:04:34.231Z,23.68
2019-04-21T11:07:10.774Z,23.42
2019-04-21T11:09:38.025Z,23.34
2019-04-21T11:12:10.159Z,23.09
2019-04-21T11:14:41.219Z,20.73
2019-04-21T11:17:12.322Z,23.42
2019-04-21T11:19:43.247Z,23.29
2019-04-21T11:22:14.727Z,23.68
2019-04-21T11:24:46.933Z,23.76
2019-04-21T11:27:19.134Z,24.22
2019-04-21T11:29:50.027Z,23.78
2019-04-21T11:32:21.208Z,24.36
2019-04-21T11:34:52.089Z,23.36
2019-04-21T11:37:26.036Z,23.27
2019-04-21T11:40:03.283Z,23.26
2019-04-21T11:42:31.549Z,23.96
2019-04-21T11:45:04.250Z,24.05
2019-04-21T11:47:38.437Z,24.16
2019-04-21T11:50:10.922Z,23.67
2019-04-21T11:52:43.181Z,24.42
2019-04-21T11:55:14.356Z,24.44
2019-04-21T11:57:49.467Z,24.68
2019-04-21T12:00:17.992Z,24.38
2019-04-21T12:02:48.765Z,24.60
2019-04-21T12:05:19.564Z,24.26
2019-04-21T12:07:51.334Z,25.76
2019-04-21T12:10:22.221Z,24.73
2019-04-21T12:12:53.212Z,24.49
2019-04-21T12:15:25.065Z,24.38
2019-04-21T12:17:56.466Z,24.27
2019-04-21T12:20:28.596Z,25.18
2019-04-21T12:23:00.382Z,25.69
2019-04-21T12:25:33.374Z,25.55
2019-04-21T12:28:05.774Z,25.02
2019-04-21T12:30:37.759Z,25.62
2019-04-21T12:33:12.075Z,25.91
2019-04-21T12:35:43.869Z,25.93
2019-04-21T12:38:14.794Z,25.53
2019-04-21T12:40:46.544Z,24.70
2019-04-21T12:43:18.785Z,25.02
2019-04-21T12:45:49.647Z,25.09
2019-04-21T12:48:20.431Z,25.82
2019-04-21T12:50:51.959Z,26.16
2019-04-21T12:53:23.553Z,26.08
2019-04-21T12:55:55.735Z,25.94
2019-04-21T12:58:26.753Z,25.41
2019-04-21T13:00:58.831Z,26.53
2019-04-21T13:03:30.503Z,27.10
2019-04-21T13:06:01.513Z,25.63
2019-04-21T13:08:41.503Z,25.54
2019-04-21T13:11:06.421Z,26.40
2019-04-21T13:13:37.753Z,26.52
2019-04-21T13:16:09.646Z,27.53
2019-04-21T13:18:41.696Z,27.78
2019-04-21T13:21:13.941Z,26.98
2019-04-21T13:23:45.200Z,27.22
2019-04-21T13:26:27.170Z,28.68
2019-04-21T13:28:50.005Z,28.65
2019-04-21T13:31:22.283Z,27.06
2019-04-21T13:33:53.367Z,28.85
2019-04-21T13:36:25.561Z,29.05
2019-04-21T13:39:49.105Z,29.26
2019-04-21T13:41:59.922Z,28.79
2019-04-21T13:44:21.338Z,28.54
2019-04-21T13:46:52.561Z,28.83
2019-04-21T13:49:23.520Z,28.05
2019-04-21T13:51:54.419Z,28.72
2019-04-21T13:54:25.518Z,28.18
2019-04-21T13:56:56.610Z,28.65
2019-04-21T13:59:28.666Z,29.27
2019-04-21T14:02:00.501Z,29.96
2019-04-21T14:04:31.529Z,29.27
2019-04-21T14:07:02.605Z,29.88
2019-04-21T14:09:40.315Z,29.01
2019-04-21T14:12:07.486Z,29.95
2019-04-21T14:14:38.700Z,30.21
2019-04-21T14:17:10.787Z,27.75
2019-04-21T14:19:41.686Z,28.39
2019-04-21T14:22:14.400Z,28.11
2019-04-21T14:24:45.836Z,29.08
2019-04-21T14:27:16.658Z,29.07
2019-04-21T14:29:47.434Z,29.39
2019-04-21T14:32:18.332Z,27.86
2019-04-21T14:34:50.694Z,28.23
2019-04-21T14:37:22.598Z,28.85
2019-04-21T14:40:01.804Z,30.39
2019-04-21T14:42:26.519Z,29.87
2019-04-21T14:44:58.609Z,29.26
2019-04-21T14:47:44.272Z,31.14
2019-04-21T14:50:34.433Z,29.63
2019-04-21T14:53:11.759Z,29.84
2019-04-21T14:55:45.745Z,29.18
2019-04-21T14:58:17.215Z,28.25
2019-04-21T15:00:55.584Z,29.71
2019-04-21T15:03:27.832Z,29.70
2019-04-21T15:05:58.737Z,29.81
2019-04-21T15:08:29.509Z,29.64
2019-04-21T15:11:01.100Z,30.18
2019-04-21T15:13:32.343Z,30.92
2019-04-21T15:16:04.740Z,30.87
2019-04-21T15:18:36.520Z,28.77
2019-04-21T15:21:08.851Z,29.44
2019-04-21T15:23:40.319Z,29.41
2019-04-21T15:26:12.298Z,29.32
2019-04-21T15:28:44.542Z,29.71
2019-04-21T15:31:23.901Z,28.72
2019-04-21T15:33:49.573Z,29.31
2019-04-21T15:36:20.968Z,29.95
2019-04-21T15:38:52.027Z,29.88
2019-04-21T15:41:23.015Z,29.84
2019-04-21T15:43:54.384Z,29.00
2019-04-21T15:46:25.173Z,30.26
2019-04-21T15:48:57.117Z,30.79
2019-04-21T15:51:29.528Z,29.95
2019-04-21T15:54:00.934Z,28.49
2019-04-21T15:56:49.100Z,27.48
2019-04-21T15:59:24.623Z,26.08
2019-04-21T16:01:58.537Z,25.91
2019-04-21T16:04:30.675Z,25.48
2019-04-21T16:07:01.700Z,25.36
2019-04-21T16:09:34.367Z,25.04
2019-04-21T16:12:05.204Z,24.39
2019-04-21T16:14:36.501Z,23.82
2019-04-21T16:17:07.607Z,23.79
2019-04-21T16:19:38.475Z,23.91
2019-04-21T16:22:10.699Z,24.10
2019-04-21T16:24:42.029Z,24.19
2019-04-21T16:27:12.931Z,24.23
2019-04-21T16:29:43.902Z,24.34
2019-04-21T16:32:18.417Z,24.39
2019-04-21T16:34:54.239Z,24.03
2019-04-21T16:37:21.467Z,23.87
2019-04-21T16:39:53.660Z,23.54
2019-04-21T16:42:24.580Z,23.52
2019-04-21T16:44:56.708Z,23.24
2019-04-21T16:47:28.263Z,23.40
2019-04-21T16:49:59.143Z,23.29
2019-04-21T16:52:32.164Z,23.63
2019-04-21T16:55:08.726Z,23.72
2019-04-21T16:57:44.277Z,23.60
2019-04-21T17:00:29.095Z,23.12
2019-04-21T17:02:50.528Z,23.15
2019-04-21T17:05:22.403Z,23.14
2019-04-21T17:07:53.323Z,23.34
2019-04-21T17:10:24.567Z,23.38
2019-04-21T17:12:56.029Z,23.36
2019-04-21T17:15:46.141Z,23.22
2019-04-21T17:18:14.593Z,22.73
2019-04-21T17:20:42.034Z,22.60
2019-04-21T17:23:05.123Z,22.83
2019-04-21T17:25:37.023Z,22.77
2019-04-21T17:28:09.831Z,22.76
2019-04-21T17:30:40.616Z,22.83
2019-04-21T17:33:16.161Z,22.53
2019-04-21T17:35:44.906Z,22.06
2019-04-21T17:38:16.333Z,22.19
2019-04-21T17:40:47.582Z,21.93
2019-04-21T17:43:19.725Z,21.97
2019-04-21T17:45:51.080Z,21.64
2019-04-21T17:48:23.295Z,21.88
2019-04-21T17:50:56.134Z,22.03
2019-04-21T17:53:38.204Z,21.89
2019-04-21T17:56:23.308Z,21.85
2019-04-21T17:58:58.180Z,21.75
2019-04-21T18:01:35.603Z,21.95
2019-04-21T18:04:12.318Z,21.76
2019-04-21T18:06:40.730Z,21.18
2019-04-21T18:09:21.868Z,21.56
2019-04-21T18:11:46.254Z,21.34
2019-04-21T18:14:01.711Z,21.10
2019-04-21T18:16:39.252Z,20.83
2019-04-21T18:19:06.725Z,20.81
2019-04-21T18:21:59.865Z,20.57
2019-04-21T18:24:40.900Z,21.05
2019-04-21T18:27:05.438Z,20.86
2019-04-21T18:29:34.898Z,20.68
2019-04-21T18:32:06.344Z,20.46
2019-04-21T18:34:52.364Z,20.34
2019-04-21T18:37:26.246Z,20.49
2019-04-21T18:40:02.689Z,19.82
2019-04-21T18:42:49.243Z,19.89
2019-04-21T18:48:21.914Z,20.09
2019-04-21T18:50:58.446Z,20.30
2019-04-21T18:53:41.530Z,20.11
2019-04-21T18:56:03.944Z,19.97
2019-04-21T18:58:30.719Z,19.74
2019-04-21T19:01:07.333Z,19.52
2019-04-21T19:03:41.062Z,19.48
2019-04-21T19:06:12.849Z,19.44
2019-04-21T19:08:59.553Z,19.12
2019-04-21T19:11:29.278Z,19.11
2019-04-21T19:14:19.776Z,18.77
2019-04-21T19:19:35.396Z,18.38
2019-04-21T19:21:52.508Z,18.19
2019-04-21T19:24:24.255Z,18.21
2019-04-21T19:27:01.697Z,18.00
2019-04-21T19:32:13.709Z,17.78
2019-04-21T19:34:19.768Z,17.89
2019-04-21T19:36:51.004Z,17.31
2019-04-21T19:39:37.883Z,17.31
2019-04-21T19:42:00.493Z,17.30
2019-04-21T19:44:43.576Z,17.30
2019-04-21T19:47:17.207Z,17.06
2019-04-21T19:49:51.381Z,16.96
2019-04-21T19:52:07.471Z,16.95
2019-04-21T19:54:38.159Z,16.95
2019-04-21T19:57:07.056Z,16.62
2019-04-21T19:59:44.624Z,16.28
2019-04-21T20:02:12.188Z,16.36
2019-04-21T20:04:51.471Z,16.36
2019-04-21T20:07:28.982Z,16.74
2019-04-21T20:10:09.244Z,16.74
2019-04-21T20:12:40.143Z,16.93
2019-04-21T20:15:23.254Z,16.37
2019-04-21T20:17:44.960Z,16.21
2019-04-21T20:20:00.454Z,16.21
2019-04-21T20:22:36.825Z,16.22
2019-04-21T20:25:11.611Z,16.67
2019-04-21T20:27:49.397Z,16.48
2019-04-21T20:30:32.764Z,15.83
2019-04-21T20:33:14.150Z,16.04
2019-04-21T20:35:44.862Z,16.04
2019-04-21T20:38:04.800Z,16.32
2019-04-21T20:40:30.880Z,15.88
2019-04-21T20:43:22.410Z,15.81
2019-04-21T20:45:45.553Z,15.79
2019-04-21T20:48:15.309Z,15.75
2019-04-21T20:50:56.212Z,15.69
2019-04-21T20:53:25.128Z,15.54
2019-04-21T20:55:52.765Z,15.77
2019-04-21T20:58:28.460Z,15.87
2019-04-21T21:01:20.231Z,15.82
2019-04-21T21:03:36.015Z,14.85
2019-04-21T21:06:03.762Z,14.89
2019-04-21T21:08:40.081Z,14.85
2019-04-21T21:11:07.924Z,14.94
2019-04-21T21:13:47.876Z,14.75
2019-04-21T21:16:20.040Z,14.45
2019-04-21T21:19:03.714Z,14.34
2019-04-21T21:21:20.666Z,14.15
2019-04-21T21:23:53.073Z,14.06
2019-04-21T21:26:31.254Z,14.10
2019-04-21T21:28:56.308Z,13.77
2019-04-21T21:31:38.721Z,14.39
2019-04-21T21:34:11.877Z,14.41
2019-04-21T21:36:41.812Z,14.43
2019-04-21T21:39:12.836Z,14.04
2019-04-21T21:41:34.489Z,13.85
2019-04-21T21:44:08.785Z,14.01
2019-04-21T21:46:48.289Z,13.84
2019-04-21T21:49:26.127Z,13.76
2019-04-21T21:51:52.878Z,13.87
2019-04-21T21:54:11.770Z,13.82
2019-04-21T21:56:42.738Z,13.53
2019-04-21T21:59:20.131Z,13.25
2019-04-21T22:01:50.717Z,13.07
2019-04-21T22:04:26.321Z,12.99
2019-04-21T22:06:58.237Z,12.77
2019-04-21T22:09:24.433Z,12.85
2019-04-21T22:11:59.361Z,12.64
2019-04-21T22:14:34.036Z,12.94
2019-04-21T22:17:20.744Z,12.84
2019-04-21T22:19:59.896Z,12.76
2019-04-21T22:22:21.496Z,12.87
2019-04-21T22:24:50.681Z,12.48
2019-04-21T22:27:12.893Z,12.50
2019-04-21T22:29:49.239Z,12.38
2019-04-21T22:32:21.556Z,12.35
2019-04-21T22:34:54.845Z,12.61
2019-04-21T22:37:39.276Z,12.61
2019-04-21T22:40:09.629Z,12.53
2019-04-21T22:42:33.214Z,12.35
2019-04-21T22:45:00.708Z,12.12
2019-04-21T22:47:34.552Z,12.16
2019-04-21T22:50:06.451Z,12.16
2019-04-21T22:52:37.526Z,12.03
2019-04-21T22:55:16.725Z,11.93
2019-04-21T22:57:47.855Z,12.13
2019-04-21T23:00:16.768Z,12.17
2019-04-21T23:02:47.387Z,12.26
2019-04-21T23:05:22.481Z,12.20
2019-04-21T23:07:57.676Z,12.07
2019-04-21T23:10:23.720Z,12.22
2019-04-21T23:12:59.544Z,12.02
2019-04-21T23:15:35.635Z,11.85
2019-04-21T23:18:22.061Z,11.91
2019-04-21T23:23:29.696Z,11.59
2019-04-21T23:25:53.285Z,11.58
2019-04-21T23:28:30.412Z,11.60
2019-04-21T23:31:03.615Z,11.54
2019-04-21T23:33:19.568Z,11.60
2019-04-21T23:35:49.534Z,11.58
2019-04-21T23:38:31.967Z,11.81
2019-04-21T23:40:58.618Z,11.63
2019-04-21T23:43:29.990Z,11.59
2019-04-21T23:46:01.673Z,11.36
2019-04-21T23:48:42.471Z,11.72
2019-04-21T23:51:15.718Z,11.82
2019-04-21T23:53:37.672Z,11.58
2019-04-21T23:56:08.859Z,11.63
2019-04-21T23:58:40.279Z,11.49
